Preachers Slough, Washington
Current Conditions -  °F | °C
As of 10:53 PM on Friday 19 Dec 2014 (Local Time) from KSHN Reporting Station
Light Rain Light Rain  
Wind Chill: 42°   Ceiling: 3900
Heat Index: 46°   Visibility: 8mi
Dew Point: 42°   Wind: 8mph
Humidity: 86%   Direction: 150°SSE
Pressure: 29.85"   Gusts: NA
Location:  47.555°N, 123.746°W
Report Text: KSHN 200653Z AUTO 15007KT 8SM -RA SCT022 OVC039 08/06 A2985 RMK AO2 RAB11 SLP109 P0002 T00780056
Loading
Personal Weather Stations






























Interactive Weather Map New forecast layout! Learn more

10-Day Weather Forecast

Advertisements
Track Severe Weather on mobile